Time;durP1;ratioP1;P1;durP2;ratioP2;P2;SDS_P1;SDS_P2;PMS_P1;PMS_P2;Temp;Humidity;BMP_temperature;BMP_pressure;BME280_temperature;BME280_humidity;BME280_pressure;Samples;Min_cycle;Max_cycle;Signal;HPM_P1;HPM_P2
2022/06/12 00:00:19;;;;;;;;;;;;;;;18.75;58.24;97459.38;30001;983;1877;-63
2022/06/12 00:00:51;;;;;;;;;;;;;;;18.73;58.11;97462.47;30001;983;1877;-63
2022/06/12 00:01:22;;;;;;;;;;;;;;;18.74;57.91;97460.53;30001;982;1877;-55
2022/06/12 00:01:53;;;;;;;;;;;;;;;18.73;57.97;97458.91;30001;982;1877;-63
2022/06/12 00:02:27;;;;;;;;;;;;;;;18.72;57.97;97465.53;30001;982;1877;-64
2022/06/12 00:03:02;;;;;;;;;;;;;;;18.72;58.28;97462.78;30001;982;1877;-64
2022/06/12 00:03:33;;;;;;;;;;;;;;;18.71;58.14;97461.22;30001;982;1877;-64
2022/06/12 00:04:04;;;;;;;;;;;;;;;18.70;58.30;97468.66;30001;982;1877;-64
2022/06/12 00:04:35;;;;;;;;;;;;;;;18.70;58.29;97460.41;30001;983;1863;-64
2022/06/12 00:05:06;;;;;;;;;;;;;;;18.70;58.44;97467.84;30001;983;1868;-56
2022/06/12 00:05:39;;;;;;;;;;;;;;;18.71;58.18;97458.47;30001;983;1876;-64
2022/06/12 00:06:10;;;;;;;;;;;;;;;18.68;58.32;97459.94;30001;983;1876;-64
2022/06/12 00:06:42;;;;;;;;;;;;;;;18.68;58.07;97459.94;30001;983;1876;-65
2022/06/12 00:07:13;;;;;;;;;;;;;;;18.66;58.29;97467.69;30001;983;1877;-64
2022/06/12 00:07:44;;;;;;;;;;;;;;;18.66;58.10;97456.69;30001;983;1877;-65
2022/06/12 00:08:15;;;;;;;;;;;;;;;18.65;58.25;97460.59;30001;983;1877;-64
2022/06/12 00:08:47;;;;;;;;;;;;;;;18.66;58.12;97462.19;30001;982;1877;-63
2022/06/12 00:09:17;;;;;;;;;;;;;;;18.65;58.41;97460.59;30001;982;1877;-63
2022/06/12 00:09:48;;;;;;;;;;;;;;;18.64;58.34;97458.16;30001;982;1864;-64
2022/06/12 00:10:20;;;;;;;;;;;;;;;18.63;58.44;97457.38;30001;982;1869;-55
2022/06/12 00:10:52;;;;;;;;;;;;;;;18.63;58.21;97456.56;30001;982;1877;-63
2022/06/12 00:11:26;;;;;;;;;;;;;;;18.62;58.50;97458.50;30001;983;1876;-63
2022/06/12 00:11:57;;;;;;;;;;;;;;;18.61;58.28;97459.62;30001;983;1876;-64
2022/06/12 00:12:28;;;;;;;;;;;;;;;18.61;58.36;97458.81;30001;983;1877;-64
2022/06/12 00:12:59;;;;;;;;;;;;;;;18.62;58.28;97461.25;30001;983;1877;-64
2022/06/12 00:13:35;;;;;;;;;;;;;;;18.61;58.62;97459.62;30001;983;1877;-64
2022/06/12 00:14:06;;;;;;;;;;;;;;;18.62;58.75;97455.75;30001;983;1877;-64
2022/06/12 00:14:37;;;;;;;;;;;;;;;18.63;58.41;97457.38;30001;983;1877;-64
2022/06/12 00:15:10;;;;;;;;;;;;;;;18.65;58.57;97460.59;30001;983;1864;-63
2022/06/12 00:15:41;;;;;;;;;;;;;;;18.64;58.60;97453.47;30001;983;1868;-64
2022/06/12 00:16:13;;;;;;;;;;;;;;;18.66;58.17;97459.44;30001;982;1877;-63
2022/06/12 00:16:45;;;;;;;;;;;;;;;18.66;58.25;97456.69;30001;982;1877;-64
2022/06/12 00:17:16;;;;;;;;;;;;;;;18.66;58.15;97453.16;30001;982;1877;-64
2022/06/12 00:17:47;;;;;;;;;;;;;;;18.66;58.14;97455.91;30001;985;1877;-65
2022/06/12 00:18:18;;;;;;;;;;;;;;;18.66;58.14;97458.66;30001;982;1877;-64
2022/06/12 00:18:50;;;;;;;;;;;;;;;18.66;58.19;97456.69;30001;983;1876;-64
2022/06/12 00:19:21;;;;;;;;;;;;;;;18.67;58.51;97458.31;30001;983;1876;-56
2022/06/12 00:19:52;;;;;;;;;;;;;;;18.66;58.46;97451.22;30001;983;1876;-65
2022/06/12 00:20:23;;;;;;;;;;;;;;;18.67;58.41;97458.31;30001;983;1863;-62
2022/06/12 00:21:12;;;;;;;;;;;;;;;18.68;58.46;97454.44;30001;983;1868;-64
2022/06/12 00:21:43;;;;;;;;;;;;;;;18.68;58.08;97453.63;30001;983;1877;-63
2022/06/12 00:22:14;;;;;;;;;;;;;;;18.68;58.26;97454.44;30001;983;1877;-64
2022/06/12 00:22:46;;;;;;;;;;;;;;;18.69;58.12;97449.75;30001;983;1795;-56
2022/06/12 00:23:17;;;;;;;;;;;;;;;18.69;58.15;97458.00;30001;983;1877;-65
2022/06/12 00:23:53;;;;;;;;;;;;;;;18.69;58.32;97455.25;30001;982;1864;-64
2022/06/12 00:24:26;;;;;;;;;;;;;;;18.69;58.21;97447.81;30001;982;1868;-64
2022/06/12 00:24:57;;;;;;;;;;;;;;;18.71;58.10;97456.50;30001;982;1877;-64
2022/06/12 00:25:29;;;;;;;;;;;;;;;18.71;58.35;97455.72;30002;793;1014;-56
2022/06/12 00:26:01;;;;;;;;;;;;;;;18.70;57.95;97452.16;30001;982;1877;-64
2022/06/12 00:26:34;;;;;;;;;;;;;;;18.70;58.26;97457.66;30001;983;1876;-64
2022/06/12 00:27:05;;;;;;;;;;;;;;;18.71;58.01;97456.50;30001;983;1877;-63
2022/06/12 00:27:37;;;;;;;;;;;;;;;18.71;58.39;97459.25;30001;983;1876;-64
2022/06/12 00:28:08;;;;;;;;;;;;;;;18.71;58.07;97456.50;30001;983;1877;-65
2022/06/12 00:28:39;;;;;;;;;;;;;;;18.73;58.10;97454.22;30001;983;1877;-63
2022/06/12 00:29:12;;;;;;;;;;;;;;;18.73;57.99;97451.47;30001;983;1863;-64
2022/06/12 00:29:44;;;;;;;;;;;;;;;18.71;58.05;97455.72;30001;983;1868;-63
2022/06/12 00:30:17;;;;;;;;;;;;;;;18.71;57.95;97464.72;30001;983;1877;-65
2022/06/12 00:30:48;;;;;;;;;;;;;;;18.70;58.03;97451.34;30001;983;1877;-64
2022/06/12 00:31:19;;;;;;;;;;;;;;;18.70;58.04;97454.91;30001;982;1877;-65
2022/06/12 00:31:52;;;;;;;;;;;;;;;18.70;58.34;97463.16;30001;982;1864;-62
2022/06/12 00:32:24;;;;;;;;;;;;;;;18.69;58.07;97456.03;30001;982;1868;-64
2022/06/12 00:32:55;;;;;;;;;;;;;;;18.68;58.44;97457.19;30001;982;1877;-65
2022/06/12 00:33:27;;;;;;;;;;;;;;;18.67;58.27;97463.81;30001;982;1864;-65
2022/06/12 00:33:58;;;;;;;;;;;;;;;18.65;58.42;97457.84;30001;983;1867;-65
2022/06/12 00:34:31;;;;;;;;;;;;;;;18.63;58.25;97462.06;30001;983;1876;-64
2022/06/12 00:35:03;;;;;;;;;;;;;;;18.63;58.75;97462.06;30001;983;1876;-64
2022/06/12 00:35:35;;;;;;;;;;;;;;;18.61;58.37;97459.62;30001;983;1877;-63
2022/06/12 00:36:10;;;;;;;;;;;;;;;18.60;58.65;97457.22;30001;983;1877;-63
2022/06/12 00:36:41;;;;;;;;;;;;;;;18.59;58.61;97458.31;30001;983;1877;-64
2022/06/12 00:37:14;;;;;;;;;;;;;;;18.56;58.92;97457.03;30001;983;1877;-63
2022/06/12 00:37:45;;;;;;;;;;;;;;;18.56;58.63;97458.97;30001;983;1864;-64
2022/06/12 00:38:15;;;;;;;;;;;;;;;18.55;58.73;97460.12;30001;983;1868;-65
2022/06/12 00:38:46;;;;;;;;;;;;;;;18.54;58.66;97458.50;30001;982;1877;-64
2022/06/12 00:39:17;;;;;;;;;;;;;;;18.54;58.81;97464.81;30001;982;1877;-64
2022/06/12 00:39:49;;;;;;;;;;;;;;;18.52;58.89;97461.59;30001;982;1864;-63
2022/06/12 00:40:21;;;;;;;;;;;;;;;18.51;58.94;97459.97;30001;982;1868;-64
2022/06/12 00:40:52;;;;;;;;;;;;;;;18.51;59.00;97454.47;30001;982;1877;-64
2022/06/12 00:41:24;;;;;;;;;;;;;;;18.49;58.88;97454.00;30001;983;1876;-63
2022/06/12 00:41:56;;;;;;;;;;;;;;;18.48;59.07;97454.31;30001;983;1863;-63
2022/06/12 00:42:29;;;;;;;;;;;;;;;18.45;59.35;97450.28;30001;983;1868;-64
2022/06/12 00:43:01;;;;;;;;;;;;;;;18.45;58.92;97455.78;30001;983;1876;-64
2022/06/12 00:43:33;;;;;;;;;;;;;;;18.44;59.05;97448.69;30001;983;1876;-64
2022/06/12 00:44:04;;;;;;;;;;;;;;;18.44;59.05;97454.19;30001;983;1877;-64
2022/06/12 00:44:40;;;;;;;;;;;;;;;18.43;59.35;97458.06;30001;983;1877;-64
2022/06/12 00:45:29;;;;;;;;;;;;;;;18.44;59.42;97454.19;30001;986;1873;-64
2022/06/12 00:46:01;;;;;;;;;;;;;;;18.44;59.20;97451.44;30001;982;1864;-62
2022/06/12 00:46:53;;;;;;;;;;;;;;;18.41;59.17;97452.09;30001;982;1868;-63
2022/06/12 00:47:23;;;;;;;;;;;;;;;18.38;59.11;97452.75;30001;982;1877;-63
2022/06/12 00:47:55;;;;;;;;;;;;;;;18.38;59.52;97450.81;30001;982;1877;-65
2022/06/12 00:48:29;;;;;;;;;;;;;;;18.36;59.33;97449.53;30001;982;1877;-64
2022/06/12 00:49:00;;;;;;;;;;;;;;;18.35;59.42;97451.50;30001;983;1876;-63
2022/06/12 00:49:33;;;;;;;;;;;;;;;18.36;59.47;97457.78;30001;983;1863;-65
2022/06/12 00:50:08;;;;;;;;;;;;;;;18.34;59.29;97451.81;30001;983;1868;-64
2022/06/12 00:50:42;;;;;;;;;;;;;;;18.33;59.39;97458.44;30001;983;1877;-57
2022/06/12 00:51:17;;;;;;;;;;;;;;;18.33;59.59;97452.94;30001;983;1877;-65
2022/06/12 00:51:50;;;;;;;;;;;;;;;18.31;59.92;97447.78;30001;983;1877;-64
2022/06/12 00:52:33;;;;;;;;;;;;;;;18.31;59.68;97452.47;30001;983;1877;-64
2022/06/12 00:53:05;;;;;;;;;;;;;;;18.30;60.16;97453.59;30001;982;1877;-64
2022/06/12 00:53:54;;;;;;;;;;;;;;;18.30;59.75;97451.66;30001;982;1877;-64
2022/06/12 00:54:26;;;;;;;;;;;;;;;18.28;59.81;97456.69;30001;982;1877;-64
2022/06/12 00:55:24;;;;;;;;;;;;;;;18.28;59.87;97450.38;30001;982;1864;-65
2022/06/12 00:56:01;;;;;;;;;;;;;;;18.27;60.16;97451.50;30001;982;1732;-64
2022/06/12 00:56:35;;;;;;;;;;;;;;;18.26;60.05;97447.97;30001;983;1876;-65
2022/06/12 00:57:07;;;;;;;;;;;;;;;18.26;60.14;97449.91;30001;983;1876;-64
2022/06/12 00:57:40;;;;;;;;;;;;;;;18.25;59.96;97451.03;30001;983;1863;-63
2022/06/12 00:58:15;;;;;;;;;;;;;;;18.24;60.07;97450.22;30001;983;1854;-64
2022/06/12 00:59:03;;;;;;;;;;;;;;;18.24;60.40;97452.16;30001;983;1876;-57
2022/06/12 00:59:39;;;;;;;;;;;;;;;18.24;60.43;97454.91;30001;983;1877;-65
2022/06/12 01:00:13;;;;;;;;;;;;;;;18.24;60.15;97454.91;30001;983;1877;-65
2022/06/12 01:00:44;;;;;;;;;;;;;;;18.22;60.27;97446.19;30001;982;1877;-65
2022/06/12 01:01:21;;;;;;;;;;;;;;;18.21;60.52;97450.06;30001;982;1864;-65
2022/06/12 01:01:53;;;;;;;;;;;;;;;18.20;60.42;97451.22;30001;982;1868;-64
2022/06/12 01:02:27;;;;;;;;;;;;;;;18.18;60.48;97451.53;30001;982;1877;-66
2022/06/12 01:02:59;;;;;;;;;;;;;;;18.19;60.34;97444.09;30001;982;1877;-65
2022/06/12 01:03:30;;;;;;;;;;;;;;;18.18;60.41;97447.97;30001;982;1864;-64
2022/06/12 01:06:34;;;;;;;;;;;;;;;18.12;60.59;97441.84;30001;983;1877;-65
2022/06/12 01:07:08;;;;;;;;;;;;;;;18.11;60.76;97445.75;30001;983;1765;-64
2022/06/12 01:07:41;;;;;;;;;;;;;;;18.11;60.83;97450.41;30001;983;1868;-64
2022/06/12 01:08:13;;;;;;;;;;;;;;;18.11;60.86;97443.00;30001;982;1877;-63
2022/06/12 01:08:44;;;;;;;;;;;;;;;18.11;60.75;97444.94;30001;982;1877;-62
2022/06/12 01:09:17;;;;;;;;;;;;;;;18.10;60.72;97446.88;30001;982;1877;-65
2022/06/12 01:09:49;;;;;;;;;;;;;;;18.10;60.70;97444.12;30001;982;1877;-64
2022/06/12 01:10:21;;;;;;;;;;;;;;;18.08;60.87;97438.97;30001;982;1877;-65
2022/06/12 01:10:55;;;;;;;;;;;;;;;18.08;60.93;97447.19;30001;982;1877;-65
2022/06/12 01:11:26;;;;;;;;;;;;;;;18.08;61.02;97444.44;30001;963;1883;-66
2022/06/12 01:11:58;;;;;;;;;;;;;;;18.06;60.86;97441.22;30001;983;1854;-65
2022/06/12 01:12:32;;;;;;;;;;;;;;;18.06;61.11;97443.16;30001;983;1876;-65
2022/06/12 01:13:15;;;;;;;;;;;;;;;18.04;61.03;97440.75;30001;983;1876;-65
2022/06/12 01:13:47;;;;;;;;;;;;;;;18.04;61.20;97434.44;30001;983;1877;-64
2022/06/12 01:14:20;;;;;;;;;;;;;;;18.02;61.05;97434.78;30001;983;1877;-65
2022/06/12 01:15:00;;;;;;;;;;;;;;;18.02;60.93;97442.19;30001;983;1877;-64
2022/06/12 01:15:39;;;;;;;;;;;;;;;18.01;61.01;97446.91;30001;983;1864;-64
2022/06/12 01:16:12;;;;;;;;;;;;;;;18.01;60.99;97438.69;30001;982;1868;-64
2022/06/12 01:16:48;;;;;;;;;;;;;;;18.02;61.28;97437.53;30001;982;1877;-63
2022/06/12 01:17:23;;;;;;;;;;;;;;;18.03;61.03;97439.13;30001;982;1864;-63
2022/06/12 01:17:54;;;;;;;;;;;;;;;18.03;61.28;97444.62;30001;982;1868;-64
2022/06/12 01:18:28;;;;;;;;;;;;;;;18.02;61.13;97434.78;30001;983;1876;-63
2022/06/12 01:18:58;;;;;;;;;;;;;;;18.02;60.97;97436.72;30001;983;1876;-65
2022/06/12 01:19:34;;;;;;;;;;;;;;;18.01;60.93;97441.44;30001;983;1877;-65
2022/06/12 01:20:11;;;;;;;;;;;;;;;18.01;61.24;97441.44;30001;983;1863;-64
2022/06/12 01:21:11;;;;;;;;;;;;;;;17.99;61.15;97443.69;30001;983;1868;-65
2022/06/12 01:22:04;;;;;;;;;;;;;;;17.98;61.20;97438.53;30001;983;1872;-64
2022/06/12 01:23:01;;;;;;;;;;;;;;;17.98;61.51;97438.53;30001;983;1859;-64
2022/06/12 01:23:55;;;;;;;;;;;;;;;17.97;61.18;97445.97;30001;982;1850;-64
2022/06/12 01:24:52;;;;;;;;;;;;;;;17.96;61.36;97443.53;30001;982;1877;-64
2022/06/12 01:25:55;;;;;;;;;;;;;;;17.93;61.21;97445.00;30001;982;1873;-63
2022/06/12 01:26:55;;;;;;;;;;;;;;;17.91;61.32;97440.97;30001;983;1872;-62
2022/06/12 01:27:40;;;;;;;;;;;;;;;17.91;61.62;97447.25;30001;983;1872;-62
2022/06/12 01:28:20;;;;;;;;;;;;;;;17.89;61.72;97438.53;30001;983;1863;-63
2022/06/12 01:29:03;;;;;;;;;;;;;;;17.88;61.41;97442.41;30001;983;1863;-64
2022/06/12 01:29:52;;;;;;;;;;;;;;;17.87;61.57;97440.81;30001;983;1877;-63
2022/06/12 01:30:29;;;;;;;;;;;;;;;17.85;61.51;97443.06;30001;983;1868;-63
2022/06/12 01:31:21;;;;;;;;;;;;;;;17.83;61.60;97437.09;30001;982;1864;-63
2022/06/12 01:32:08;;;;;;;;;;;;;;;17.82;61.62;97443.72;30001;982;1781;-62
2022/06/12 01:32:55;;;;;;;;;;;;;;;17.83;61.91;97439.03;30001;982;1877;-63
2022/06/12 01:33:32;;;;;;;;;;;;;;;17.84;61.78;97440.66;30001;987;1876;-62
2022/06/12 01:34:29;;;;;;;;;;;;;;;17.84;61.74;97440.66;30001;983;1850;-61
2022/06/12 01:35:37;;;;;;;;;;;;;;;17.83;61.91;97445.34;30001;983;1863;-62
2022/06/12 01:36:15;;;;;;;;;;;;;;;17.81;62.00;97436.62;30001;983;1872;-63
2022/06/12 01:37:10;;;;;;;;;;;;;;;17.79;61.97;97440.81;30001;983;1877;-63
2022/06/12 01:37:47;;;;;;;;;;;;;;;17.75;62.16;97443.41;30001;983;1864;-62
2022/06/12 01:38:26;;;;;;;;;;;;;;;17.71;62.17;97442.44;30001;965;1885;-63
2022/06/12 01:39:11;;;;;;;;;;;;;;;17.67;62.46;97447.78;30001;982;1877;-61
2022/06/12 01:40:01;;;;;;;;;;;;;;;17.64;62.48;97444.88;30001;982;1877;-62
2022/06/12 01:40:51;;;;;;;;;;;;;;;17.60;63.26;97443.91;30001;982;1869;-63
2022/06/12 01:41:57;;;;;;;;;;;;;;;17.55;63.57;97444.06;30001;983;1859;-63
2022/06/12 01:42:54;;;;;;;;;;;;;;;17.52;63.40;97441.97;30001;983;1863;-63
2022/06/12 01:43:45;;;;;;;;;;;;;;;17.49;64.38;97445.34;30001;983;1872;-63
2022/06/12 01:44:25;;;;;;;;;;;;;;;17.46;64.04;97443.25;30001;983;1863;-62
2022/06/12 01:45:12;;;;;;;;;;;;;;;17.45;64.67;97449.88;30001;983;1868;-63
2022/06/12 01:45:53;;;;;;;;;;;;;;;17.42;64.39;97434.88;30001;982;1877;-63
2022/06/12 01:46:29;;;;;;;;;;;;;;;17.40;63.97;97437.94;30002;982;1877;-64
2022/06/12 01:47:10;;;;;;;;;;;;;;;17.39;64.87;97439.06;30001;982;1877;-61
2022/06/12 01:47:47;;;;;;;;;;;;;;;17.36;65.04;97436.97;30002;982;1877;-61
2022/06/12 01:48:37;;;;;;;;;;;;;;;17.35;64.80;97438.09;30002;982;1877;-63
2022/06/12 01:49:18;;;;;;;;;;;;;;;17.34;65.68;97441.16;30002;983;1868;-62
2022/06/12 01:49:57;;;;;;;;;;;;;;;17.31;65.32;97434.41;30002;983;1863;-62
2022/06/12 01:50:42;;;;;;;;;;;;;;;17.30;65.10;97438.28;30002;983;1868;-63
2022/06/12 01:51:21;;;;;;;;;;;;;;;17.28;65.23;97435.03;30002;983;1877;-63
2022/06/12 01:51:58;;;;;;;;;;;;;;;17.28;65.88;97432.31;30002;983;1877;-63
2022/06/12 01:52:32;;;;;;;;;;;;;;;17.26;65.89;97436.50;30002;983;1877;-62
2022/06/12 01:53:09;;;;;;;;;;;;;;;17.24;65.74;97439.56;30002;982;1877;-64
2022/06/12 01:53:57;;;;;;;;;;;;;;;17.23;65.57;97435.19;30002;982;1877;-61
2022/06/12 01:54:41;;;;;;;;;;;;;;;17.21;66.28;97434.72;30002;982;1877;-61
2022/06/12 01:55:19;;;;;;;;;;;;;;;17.18;66.67;97435.38;30002;982;1864;-63
2022/06/12 01:55:56;;;;;;;;;;;;;;;17.14;66.62;97431.66;30002;982;1869;-61
2022/06/12 01:56:36;;;;;;;;;;;;;;;17.12;67.04;97430.34;30002;983;1876;-62
2022/06/12 01:57:11;;;;;;;;;;;;;;;17.09;66.92;97429.88;30002;983;1877;-63
2022/06/12 01:57:46;;;;;;;;;;;;;;;17.06;66.95;97433.25;30002;983;1877;-63
2022/06/12 01:58:48;;;;;;;;;;;;;;;17.05;66.64;97433.56;30002;983;1876;-62
2022/06/12 01:59:22;;;;;;;;;;;;;;;17.05;66.78;97430.81;30002;983;1859;-62
2022/06/12 01:59:58;;;;;;;;;;;;;;;17.04;66.60;97431.94;30002;983;1868;-61
2022/06/12 02:00:29;;;;;;;;;;;;;;;17.02;66.44;97429.53;30002;982;1877;-61
2022/06/12 02:01:10;;;;;;;;;;;;;;;17.03;66.67;97438.56;30002;982;1864;-62
2022/06/12 02:01:48;;;;;;;;;;;;;;;17.00;67.08;97434.53;30002;982;1868;-61
2022/06/12 02:02:54;;;;;;;;;;;;;;;16.98;67.00;97430.53;30002;982;1877;-62
2022/06/12 02:03:32;;;;;;;;;;;;;;;16.96;66.92;97432.78;30002;982;1873;-61
2022/06/12 02:04:11;;;;;;;;;;;;;;;16.94;66.76;97430.34;30002;983;1863;-63
2022/06/12 02:04:55;;;;;;;;;;;;;;;16.92;67.70;97429.88;30002;983;1868;-62
2022/06/12 02:05:31;;;;;;;;;;;;;;;16.91;67.34;97431.00;30002;983;1864;-64
2022/06/12 02:06:08;;;;;;;;;;;;;;;16.89;67.57;97427.75;30002;983;1855;-63
2022/06/12 02:06:43;;;;;;;;;;;;;;;16.87;68.02;97431.94;30002;983;1877;-61
2022/06/12 02:07:27;;;;;;;;;;;;;;;16.84;67.75;97429.84;30002;983;1877;-61
2022/06/12 02:08:04;;;;;;;;;;;;;;;16.82;67.81;97421.94;30002;982;1877;-62
2022/06/12 02:08:40;;;;;;;;;;;;;;;16.80;67.83;97424.19;30002;982;1864;-63
2022/06/12 02:09:17;;;;;;;;;;;;;;;16.79;68.10;97428.06;30002;982;1868;-63
2022/06/12 02:09:53;;;;;;;;;;;;;;;16.75;69.35;97427.88;30002;982;1877;-62
2022/06/12 02:10:26;;;;;;;;;;;;;;;16.70;68.50;97419.81;30002;983;1876;-63
2022/06/12 02:13:11;;;;;;;;;;;;;;;16.64;70.47;97420.28;30002;983;1864;-63
2022/06/12 02:13:42;;;;;;;;;;;;;;;16.60;70.81;97424.78;30002;964;1797;-63
2022/06/12 02:14:15;;;;;;;;;;;;;;;16.57;70.22;97420.75;30002;983;1876;-62
2022/06/12 02:15:06;;;;;;;;;;;;;;;16.56;69.77;97419.13;30002;983;1877;-62
2022/06/12 02:15:46;;;;;;;;;;;;;;;16.57;69.45;97419.94;30002;982;1877;-63
2022/06/12 02:16:21;;;;;;;;;;;;;;;16.54;70.51;97421.38;30002;982;1877;-61
2022/06/12 02:16:53;;;;;;;;;;;;;;;16.51;70.12;97416.53;30002;982;1877;-63
2022/06/12 02:17:29;;;;;;;;;;;;;;;16.51;69.95;97424.75;30002;982;1877;-62
2022/06/12 02:18:03;;;;;;;;;;;;;;;16.50;69.47;97425.87;30002;983;1863;-61
2022/06/12 02:18:41;;;;;;;;;;;;;;;16.50;69.80;97423.13;30002;983;1867;-63
2022/06/12 02:19:17;;;;;;;;;;;;;;;16.48;69.49;97422.66;30002;983;1876;-61
2022/06/12 02:19:49;;;;;;;;;;;;;;;16.48;69.42;97422.66;30002;983;1877;-62
2022/06/12 02:20:22;;;;;;;;;;;;;;;16.47;69.65;97431.97;30002;983;1877;-62
2022/06/12 02:20:58;;;;;;;;;;;;;;;16.47;70.16;97423.75;30002;983;1841;-63
2022/06/12 02:21:35;;;;;;;;;;;;;;;16.45;69.87;97423.28;30002;983;1863;-61
2022/06/12 02:22:09;;;;;;;;;;;;;;;16.39;70.38;97425.34;30002;983;1868;-63
2022/06/12 02:22:43;;;;;;;;;;;;;;;16.38;69.47;97423.72;30002;983;1877;-61
2022/06/12 02:23:19;;;;;;;;;;;;;;;16.39;69.46;97419.06;30002;982;1877;-63
2022/06/12 02:23:52;;;;;;;;;;;;;;;16.39;69.84;97424.53;30002;982;1877;-63
2022/06/12 02:24:26;;;;;;;;;;;;;;;16.37;70.29;97427.59;30002;982;1877;-63
2022/06/12 02:25:03;;;;;;;;;;;;;;;16.35;69.34;97429.84;30002;982;1877;-63
2022/06/12 02:25:37;;;;;;;;;;;;;;;16.36;69.41;97430.66;30002;983;1863;-62
2022/06/12 02:26:10;;;;;;;;;;;;;;;16.37;69.36;97426.78;30002;983;1868;-62
2022/06/12 02:27:01;;;;;;;;;;;;;;;16.38;69.91;97428.41;30002;983;1877;-61
2022/06/12 02:27:40;;;;;;;;;;;;;;;16.36;69.27;97425.16;30002;983;1872;-63
2022/06/12 02:28:15;;;;;;;;;;;;;;;16.40;69.10;97428.91;30002;966;1889;-63
2022/06/12 02:28:49;;;;;;;;;;;;;;;16.41;68.88;97433.25;30002;983;1868;-63
2022/06/12 02:29:21;;;;;;;;;;;;;;;16.41;68.62;97425.03;30002;983;1868;-61
2022/06/12 02:29:58;;;;;;;;;;;;;;;16.45;68.71;97438.91;30002;983;1859;-62
2022/06/12 02:30:31;;;;;;;;;;;;;;;16.47;68.78;97426.50;30002;982;1881;-63
2022/06/12 02:31:05;;;;;;;;;;;;;;;16.52;68.33;97433.78;30002;982;1881;-63
2022/06/12 02:31:40;;;;;;;;;;;;;;;16.61;68.03;97431.87;30002;982;1882;-63
2022/06/12 02:32:17;;;;;;;;;;;;;;;16.65;67.84;97430.91;30002;982;1882;-63
2022/06/12 02:33:01;;;;;;;;;;;;;;;16.69;67.63;97437.38;30002;982;1881;-62
2022/06/12 02:33:35;;;;;;;;;;;;;;;16.78;67.25;97431.13;30002;983;1867;-62
2022/06/12 02:34:09;;;;;;;;;;;;;;;16.81;67.03;97435.97;30002;983;1872;-63
2022/06/12 02:34:42;;;;;;;;;;;;;;;16.85;66.61;97434.19;30002;983;1881;-64
2022/06/12 02:35:25;;;;;;;;;;;;;;;16.88;66.46;97433.56;30002;983;1868;-63
2022/06/12 02:36:01;;;;;;;;;;;;;;;16.91;66.46;97430.19;30002;983;1872;-63
2022/06/12 02:36:35;;;;;;;;;;;;;;;16.96;66.52;97432.78;30002;983;1881;-63
2022/06/12 02:37:10;;;;;;;;;;;;;;;16.98;66.31;97430.53;30001;983;1881;-63
2022/06/12 02:37:43;;;;;;;;;;;;;;;16.98;66.09;97430.53;30001;983;1881;-63
2022/06/12 02:38:43;;;;;;;;;;;;;;;16.99;66.32;97438.41;30001;982;1868;-63
2022/06/12 02:39:34;;;;;;;;;;;;;;;16.99;66.11;97430.16;30002;982;1868;-63
2022/06/12 02:40:12;;;;;;;;;;;;;;;16.96;65.96;97432.78;30002;982;1877;-63
2022/06/12 02:40:49;;;;;;;;;;;;;;;16.92;66.32;97431.81;30002;983;1764;-63
2022/06/12 02:41:25;;;;;;;;;;;;;;;16.84;67.58;97436.12;30001;983;1872;-64
2022/06/12 02:42:02;;;;;;;;;;;;;;;16.77;68.28;97432.25;30001;983;1881;-63
2022/06/12 02:42:37;;;;;;;;;;;;;;;16.69;69.31;97429.16;30001;983;1881;-62
2022/06/12 02:43:11;;;;;;;;;;;;;;;16.62;69.67;97439.78;30001;983;1881;-64
2022/06/12 02:43:44;;;;;;;;;;;;;;;16.57;69.09;97431.69;30001;983;1881;-62
2022/06/12 02:44:23;;;;;;;;;;;;;;;16.55;68.88;97431.22;30001;983;1881;-62
2022/06/12 02:45:12;;;;;;;;;;;;;;;16.52;69.50;97431.84;30001;982;1881;-62
2022/06/12 02:45:52;;;;;;;;;;;;;;;16.45;69.53;97439.72;30001;982;1868;-54
2022/06/12 02:46:27;;;;;;;;;;;;;;;16.42;69.21;97423.91;30001;982;1873;-61
2022/06/12 02:47:07;;;;;;;;;;;;;;;16.39;69.58;97436.31;30001;982;1868;-62
2022/06/12 02:47:39;;;;;;;;;;;;;;;16.36;69.58;97425.97;30001;982;1873;-61
2022/06/12 02:48:10;;;;;;;;;;;;;;;16.33;70.29;97436.75;30001;983;1881;-62
2022/06/12 02:48:41;;;;;;;;;;;;;;;16.31;71.12;97428.03;30001;983;1881;-63
2022/06/12 02:49:13;;;;;;;;;;;;;;;16.28;70.66;97435.00;30001;983;1867;-62
2022/06/12 02:49:46;;;;;;;;;;;;;;;16.27;69.92;97429.84;30001;983;1872;-61
2022/06/12 02:50:21;;;;;;;;;;;;;;;16.27;70.38;97433.37;30001;983;1881;-54
2022/06/12 02:51:02;;;;;;;;;;;;;;;16.26;69.83;97426.28;30001;983;1881;-64
2022/06/12 02:52:07;;;;;;;;;;;;;;;16.27;70.05;97433.37;30001;983;1881;-61
2022/06/12 02:53:04;;;;;;;;;;;;;;;16.27;69.74;97425.16;30001;982;1877;-54
2022/06/12 02:53:49;;;;;;;;;;;;;;;16.27;70.17;97435.31;30001;982;1877;-62
2022/06/12 02:54:43;;;;;;;;;;;;;;;16.25;71.01;97430.16;30001;982;1868;-61
2022/06/12 02:55:45;;;;;;;;;;;;;;;16.20;70.88;97426.75;30001;982;1873;-62
2022/06/12 02:56:25;;;;;;;;;;;;;;;16.17;70.73;97427.38;30001;983;1876;-61
2022/06/12 02:57:14;;;;;;;;;;;;;;;16.16;71.16;97428.50;30001;983;1867;-63
2022/06/12 02:58:07;;;;;;;;;;;;;;;16.13;71.37;97426.38;30001;983;1859;-63
2022/06/12 02:58:58;;;;;;;;;;;;;;;16.11;71.27;97434.09;30001;983;1876;-53
2022/06/12 02:59:49;;;;;;;;;;;;;;;16.11;70.98;97431.38;30001;983;1877;-63
2022/06/12 03:00:29;;;;;;;;;;;;;;;16.11;70.93;97426.69;30001;982;1864;-63
2022/06/12 03:01:13;;;;;;;;;;;;;;;16.10;71.25;97430.56;30001;982;1872;-62
2022/06/12 03:02:08;;;;;;;;;;;;;;;16.06;71.74;97427.63;30001;982;1882;-62
2022/06/12 03:02:56;;;;;;;;;;;;;;;16.03;71.23;97428.25;30001;982;1869;-62
2022/06/12 03:03:51;;;;;;;;;;;;;;;16.04;70.86;97427.13;30001;983;1863;-62
2022/06/12 03:04:29;;;;;;;;;;;;;;;16.03;71.45;97422.78;30001;983;1876;-61
2022/06/12 03:05:11;;;;;;;;;;;;;;;16.02;71.49;97432.13;30001;983;1881;-62
2022/06/12 03:05:43;;;;;;;;;;;;;;;16.01;72.15;97427.78;30001;983;1881;-62
2022/06/12 03:06:14;;;;;;;;;;;;;;;15.99;72.27;97426.47;30001;983;1881;-62
2022/06/12 03:06:46;;;;;;;;;;;;;;;15.98;71.94;97431.13;30001;983;1868;-62
2022/06/12 03:07:17;;;;;;;;;;;;;;;15.97;71.93;97431.44;30001;982;1846;-63
2022/06/12 03:07:50;;;;;;;;;;;;;;;15.98;71.37;97430.31;30001;982;1881;-63
2022/06/12 03:08:23;;;;;;;;;;;;;;;15.98;72.03;97435.78;30001;982;1881;-63
2022/06/12 03:08:58;;;;;;;;;;;;;;;15.96;71.59;97433.37;30001;982;1881;-63
2022/06/12 03:09:29;;;;;;;;;;;;;;;15.98;71.45;97424.84;30001;982;1882;-62
2022/06/12 03:10:03;;;;;;;;;;;;;;;15.99;71.65;97432.75;30001;982;1868;-62
2022/06/12 03:10:38;;;;;;;;;;;;;;;15.98;71.85;97433.06;30001;982;1873;-62
2022/06/12 03:11:20;;;;;;;;;;;;;;;15.96;71.85;97432.56;30001;983;1881;-62
2022/06/12 03:11:54;;;;;;;;;;;;;;;15.93;71.98;97431.28;30001;983;1881;-61
2022/06/12 03:12:27;;;;;;;;;;;;;;;15.92;71.80;97426.94;30001;983;1881;-64
2022/06/12 03:13:00;;;;;;;;;;;;;;;15.94;71.60;97435.62;30001;983;1853;-65
2022/06/12 03:13:32;;;;;;;;;;;;;;;15.95;71.34;97430.94;30001;983;1881;-63
2022/06/12 03:14:11;;;;;;;;;;;;;;;15.98;71.65;97433.06;30001;983;1881;-63
2022/06/12 03:14:46;;;;;;;;;;;;;;;16.00;71.47;97434.38;30001;983;1881;-64
2022/06/12 03:15:33;;;;;;;;;;;;;;;16.05;71.03;97426.03;30001;982;1868;-63
2022/06/12 03:16:29;;;;;;;;;;;;;;;16.07;70.94;97434.72;30001;982;1873;-62
2022/06/12 03:17:00;;;;;;;;;;;;;;;16.17;70.71;97428.19;30001;982;1864;-63
2022/06/12 03:17:31;;;;;;;;;;;;;;;16.23;70.55;97426.09;30001;983;1872;-62
2022/06/12 03:18:04;;;;;;;;;;;;;;;16.26;70.29;97430.94;30001;983;1881;-62
2022/06/12 03:18:38;;;;;;;;;;;;;;;16.31;70.18;97423.38;30001;983;1881;-62
2022/06/12 03:19:11;;;;;;;;;;;;;;;16.33;70.07;97425.81;30001;983;1881;-61
2022/06/12 03:19:47;;;;;;;;;;;;;;;16.34;69.81;97421.94;30001;983;1881;-64
2022/06/12 03:20:18;;;;;;;;;;;;;;;16.36;69.69;97427.91;30001;983;1868;-63
2022/06/12 03:21:07;;;;;;;;;;;;;;;16.39;69.50;97430.03;30001;983;1872;-63
2022/06/12 03:21:43;;;;;;;;;;;;;;;16.42;69.47;97423.91;30001;983;1873;-64
2022/06/12 03:22:52;;;;;;;;;;;;;;;16.42;69.35;97426.66;30001;983;1881;-62
2022/06/12 03:23:32;;;;;;;;;;;;;;;16.42;69.21;97423.91;30001;982;1877;-62
2022/06/12 03:24:16;;;;;;;;;;;;;;;16.42;69.25;97432.13;30001;982;1868;-61
2022/06/12 03:25:15;;;;;;;;;;;;;;;16.42;69.31;97429.38;30001;982;1873;-63
2022/06/12 03:25:51;;;;;;;;;;;;;;;16.41;69.37;97422.28;30001;983;1876;-63